Time;durP1;ratioP1;P1;durP2;ratioP2;P2;SDS_P1;SDS_P2;PMS_P1;PMS_P2;Temp;Humidity;BMP_temperature;BMP_pressure;BME280_temperature;BME280_humidity;BME280_pressure;Samples;Min_cycle;Max_cycle;Signal;HPM_P1;HPM_P2
2021/10/13 00:00:55;;;;;;;14.68;5.53;;;6.70;99.90;;;;;;5058319;28;20493;-55
2021/10/13 00:03:25;;;;;;;14.80;5.90;;;6.70;99.90;;;;;;5074081;28;20037;-56
2021/10/13 00:05:54;;;;;;;11.75;5.93;;;6.70;99.90;;;;;;5064105;28;20045;-55
2021/10/13 00:08:19;;;;;;;;;;;6.70;99.90;;;;;;5064362;28;20060;-57
2021/10/13 00:10:46;;;;;;;16.73;6.20;;;6.60;99.90;;;;;;5061307;28;19929;-59
2021/10/13 00:13:12;;;;;;;9.18;5.65;;;6.60;99.90;;;;;;5063686;28;20205;-59
2021/10/13 00:15:38;;;;;;;16.05;6.72;;;6.70;99.90;;;;;;5063607;28;20043;-58
2021/10/13 00:18:05;;;;;;;13.50;5.65;;;6.60;99.90;;;;;;5054870;28;20608;-59
2021/10/13 00:20:31;;;;;;;17.95;6.15;;;6.70;99.90;;;;;;5049190;28;20082;-57
2021/10/13 00:22:57;;;;;;;9.88;6.43;;;6.60;99.90;;;;;;5050156;28;20040;-57
2021/10/13 00:25:22;;;;;;;;;;;6.60;99.90;;;;;;5049966;28;20056;-58
2021/10/13 00:27:48;;;;;;;9.20;5.22;;;6.60;99.90;;;;;;5050293;28;20087;-58
2021/10/13 00:30:14;;;;;;;;;;;6.60;99.90;;;;;;5049248;28;20045;-60
2021/10/13 00:32:39;;;;;;;7.93;4.55;;;6.60;99.90;;;;;;5049511;28;19920;-58
2021/10/13 00:35:05;;;;;;;5.05;3.72;;;6.60;99.90;;;;;;5049410;28;20048;-60
2021/10/13 00:37:31;;;;;;;5.95;4.13;;;6.70;99.90;;;;;;5049946;28;20048;-61
2021/10/13 00:39:56;;;;;;;;;;;6.70;99.90;;;;;;5051103;28;20059;-57
2021/10/13 00:42:22;;;;;;;7.97;4.97;;;6.70;99.90;;;;;;5049279;28;20586;-57
2021/10/13 00:44:48;;;;;;;;;;;6.70;99.90;;;;;;5050457;28;20080;-61
2021/10/13 00:47:13;;;;;;;8.98;4.72;;;6.70;99.90;;;;;;5049954;28;19920;-61
2021/10/13 00:49:39;;;;;;;;;;;6.70;99.90;;;;;;5050302;28;20072;-56
2021/10/13 00:52:05;;;;;;;10.13;5.32;;;6.60;99.90;;;;;;5043135;28;19924;-59
2021/10/13 00:54:31;;;;;;;7.28;4.28;;;6.70;99.90;;;;;;5048824;28;20513;-61
2021/10/13 00:56:57;;;;;;;8.63;4.50;;;6.70;99.90;;;;;;5049861;28;20535;-56
2021/10/13 00:59:22;;;;;;;;;;;6.80;99.90;;;;;;5050067;28;20041;-61
2021/10/13 01:02:01;;;;;;;8.77;5.13;;;6.80;99.90;;;;;;5046367;28;19927;-61
2021/10/13 01:04:45;;;;;;;8.43;4.82;;;6.80;99.90;;;;;;5048314;28;20041;-60
2021/10/13 01:07:21;;;;;;;8.30;5.05;;;6.70;99.90;;;;;;5048151;28;20041;-55
2021/10/13 01:09:55;;;;;;;9.45;5.80;;;6.70;99.90;;;;;;5011126;28;20128;-60
2021/10/13 01:12:33;;;;;;;9.02;5.75;;;6.80;99.90;;;;;;5028444;28;20453;-56
2021/10/13 01:15:18;;;;;;;12.32;7.32;;;6.80;99.90;;;;;;5028331;28;20467;-56
2021/10/13 01:18:10;;;;;;;8.85;6.00;;;6.70;99.90;;;;;;5048639;28;20040;-57
2021/10/13 01:21:09;;;;;;;12.85;7.22;;;6.70;99.90;;;;;;5048950;28;20520;-57
2021/10/13 01:24:02;;;;;;;11.52;7.32;;;6.70;99.90;;;;;;5048440;28;20572;-58
2021/10/13 01:26:45;;;;;;;11.68;6.63;;;6.80;99.90;;;;;;5049035;28;20096;-57
2021/10/13 01:29:15;;;;;;;11.27;7.53;;;6.80;99.90;;;;;;5048352;28;20493;-57
2021/10/13 01:31:44;;;;;;;12.73;7.05;;;6.80;99.90;;;;;;5044272;28;20102;-60
2021/10/13 01:34:14;;;;;;;10.45;6.38;;;6.80;99.90;;;;;;5067355;28;20079;-58
2021/10/13 01:36:46;;;;;;;9.13;5.88;;;6.80;99.90;;;;;;5060849;28;20493;-58
2021/10/13 01:39:13;;;;;;;10.00;5.55;;;6.80;99.90;;;;;;5067819;28;20393;-60
2021/10/13 01:41:42;;;;;;;9.68;6.03;;;6.80;99.90;;;;;;5067889;28;20083;-60
2021/10/13 01:44:14;;;;;;;9.35;6.00;;;6.80;99.90;;;;;;5066614;28;20740;-59
2021/10/13 01:46:44;;;;;;;11.35;6.20;;;6.90;99.90;;;;;;5067036;28;20131;-58
2021/10/13 01:49:10;;;;;;;12.20;6.03;;;6.90;99.90;;;;;;5068261;28;20699;-59
2021/10/13 01:51:37;;;;;;;8.18;5.57;;;6.90;99.90;;;;;;5067435;28;20040;-58
2021/10/13 01:54:04;;;;;;;9.43;5.05;;;6.90;99.90;;;;;;5067495;28;20044;-59
2021/10/13 01:56:30;;;;;;;12.25;5.85;;;6.90;99.90;;;;;;5068109;28;20751;-57
2021/10/13 01:59:00;;;;;;;12.23;5.35;;;7.00;99.90;;;;;;5067393;28;20055;-59
2021/10/13 02:01:29;;;;;;;7.15;4.97;;;7.00;99.90;;;;;;5066109;28;20056;-58
2021/10/13 02:04:01;;;;;;;8.80;4.85;;;7.00;99.90;;;;;;5067056;28;20036;-58
2021/10/13 02:06:29;;;;;;;11.77;6.28;;;7.00;99.90;;;;;;5067838;28;20090;-60
2021/10/13 02:08:56;;;;;;;10.32;5.55;;;7.00;99.90;;;;;;5067429;28;20063;-59
2021/10/13 02:11:30;;;;;;;8.63;4.78;;;7.00;99.90;;;;;;5067059;28;20056;-57
2021/10/13 02:14:02;;;;;;;14.43;5.60;;;7.00;99.90;;;;;;5066936;28;20066;-59
2021/10/13 02:16:30;;;;;;;7.25;4.88;;;7.00;99.90;;;;;;5048477;28;20074;-60
2021/10/13 02:18:59;;;;;;;14.18;5.60;;;7.00;99.90;;;;;;5068363;28;20048;-58
2021/10/13 02:21:25;;;;;;;11.23;5.65;;;6.90;99.90;;;;;;5067127;28;20048;-59
2021/10/13 02:23:54;;;;;;;10.07;5.85;;;7.00;99.90;;;;;;5066715;28;20040;-60
2021/10/13 02:26:32;;;;;;;12.65;5.50;;;7.00;99.90;;;;;;5066566;28;20033;-56
2021/10/13 02:29:05;;;;;;;9.20;4.63;;;7.00;99.90;;;;;;5049817;28;20067;-56
2021/10/13 02:31:32;;;;;;;9.65;4.90;;;7.00;99.90;;;;;;5066641;28;20032;-57
2021/10/13 02:33:58;;;;;;;12.23;5.55;;;7.00;99.90;;;;;;5066966;28;20526;-57
2021/10/13 02:36:24;;;;;;;;;;;7.00;99.90;;;;;;5066835;28;20041;-57
2021/10/13 02:38:49;;;;;;;9.70;4.80;;;7.00;99.90;;;;;;5067655;28;20007;-57
2021/10/13 02:41:15;;;;;;;8.68;4.97;;;7.00;99.90;;;;;;5068743;28;20041;-59
2021/10/13 02:43:40;;;;;;;;;;;7.00;99.90;;;;;;5068871;28;20447;-63
2021/10/13 02:46:22;;;;;;;7.85;4.80;;;6.90;99.90;;;;;;5067355;28;19952;-62
2021/10/13 02:48:57;;;;;;;7.63;4.95;;;7.00;99.90;;;;;;5068381;28;20040;-63
2021/10/13 02:51:38;;;;;;;7.88;5.15;;;6.90;99.90;;;;;;5067494;28;20051;-62
2021/10/13 02:54:23;;;;;;;9.70;5.38;;;6.90;99.90;;;;;;5067172;28;20080;-63
2021/10/13 02:56:51;;;;;;;11.73;5.43;;;6.90;99.90;;;;;;5068721;28;20070;-62
2021/10/13 02:59:28;;;;;;;11.15;5.43;;;6.90;99.90;;;;;;5067504;28;20050;-62
2021/10/13 03:01:56;;;;;;;8.30;4.93;;;6.90;99.90;;;;;;5066759;28;20036;-61
2021/10/13 03:04:26;;;;;;;12.40;6.45;;;6.90;99.90;;;;;;5067461;28;20488;-62
2021/10/13 03:07:03;;;;;;;10.40;4.97;;;6.90;99.90;;;;;;5066655;28;20815;-61
2021/10/13 03:09:33;;;;;;;12.00;6.45;;;6.90;99.90;;;;;;5067273;28;20121;-62
2021/10/13 03:12:02;;;;;;;11.90;5.93;;;6.90;99.90;;;;;;5066973;28;20048;-63
2021/10/13 03:14:29;;;;;;;15.13;5.90;;;6.80;99.90;;;;;;5066718;28;20070;-62
2021/10/13 03:16:55;;;;;;;13.40;8.02;;;6.80;99.90;;;;;;5067158;28;20058;-62
2021/10/13 03:19:22;;;;;;;19.88;10.55;;;6.80;99.90;;;;;;5066899;28;20032;-63
2021/10/13 03:21:51;;;;;;;15.48;8.60;;;6.80;99.90;;;;;;5067044;28;20052;-61
2021/10/13 03:24:17;;;;;;;15.15;7.10;;;6.80;99.90;;;;;;5066347;28;20044;-61
2021/10/13 03:26:47;;;;;;;10.93;6.07;;;6.80;99.90;;;;;;5067260;28;20474;-66
2021/10/13 03:29:13;;;;;;;10.25;6.57;;;6.80;99.90;;;;;;5067272;28;20120;-63
2021/10/13 03:31:39;;;;;;;;;;;6.80;99.90;;;;;;5066083;28;20124;-62
2021/10/13 03:34:05;;;;;;;9.80;5.57;;;6.80;99.90;;;;;;5066796;28;20372;-61
2021/10/13 03:36:41;;;;;;;;;;;6.80;99.90;;;;;;5068782;28;20044;-61
2021/10/13 03:39:07;;;;;;;12.45;5.50;;;6.90;99.90;;;;;;5068120;28;19916;-62
2021/10/13 03:41:33;;;;;;;13.27;6.95;;;6.80;99.90;;;;;;5067445;28;20041;-62
2021/10/13 03:43:59;;;;;;;;;;;6.90;99.90;;;;;;5067851;28;20036;-63
2021/10/13 03:46:24;;;;;;;12.13;6.65;;;6.90;99.90;;;;;;5068037;28;20440;-63
2021/10/13 03:48:51;;;;;;;10.13;5.85;;;6.90;99.90;;;;;;5067163;28;20819;-62
2021/10/13 03:51:17;;;;;;;10.40;7.05;;;6.90;99.90;;;;;;5065975;28;20470;-64
2021/10/13 03:53:43;;;;;;;17.83;6.93;;;7.00;99.90;;;;;;5070793;28;20438;-61
2021/10/13 03:56:09;;;;;;;;;;;7.00;99.90;;;;;;5072495;28;20127;-59
2021/10/13 03:58:34;;;;;;;8.38;5.68;;;7.00;99.90;;;;;;5088600;28;19923;-59
2021/10/13 04:01:00;;;;;;;;;;;7.00;99.90;;;;;;5072337;28;20135;-62
2021/10/13 04:03:26;;;;;;;14.15;6.95;;;7.00;99.90;;;;;;5071995;28;20011;-61
2021/10/13 04:05:51;;;;;;;;;;;6.90;99.90;;;;;;5071420;28;20463;-62
2021/10/13 04:08:17;;;;;;;15.40;7.45;;;6.90;99.90;;;;;;5070693;28;19924;-62
2021/10/13 04:10:42;;;;;;;15.18;7.00;;;6.90;99.90;;;;;;5070219;28;20634;-65
2021/10/13 04:13:08;;;;;;;16.20;7.55;;;6.90;99.90;;;;;;5063047;28;20029;-62
2021/10/13 04:15:33;;;;;;;;;;;6.80;99.90;;;;;;5080190;28;20031;-61
2021/10/13 04:17:59;;;;;;;15.85;7.05;;;6.90;99.90;;;;;;5070999;28;19920;-64
2021/10/13 04:20:24;;;;;;;;;;;6.90;99.90;;;;;;5080469;28;20033;-63
2021/10/13 04:22:50;;;;;;;11.85;7.55;;;6.90;99.90;;;;;;5076778;28;19916;-64
2021/10/13 04:25:15;;;;;;;;;;;6.90;99.90;;;;;;5069688;28;20511;-61
2021/10/13 04:27:41;;;;;;;15.73;9.02;;;6.90;99.90;;;;;;5071015;28;19931;-64
2021/10/13 04:30:07;;;;;;;14.30;8.18;;;6.90;99.90;;;;;;5070146;28;20697;-64
2021/10/13 04:32:33;;;;;;;15.50;8.93;;;6.90;99.90;;;;;;5069665;28;20090;-64
2021/10/13 04:34:58;;;;;;;;;;;7.00;99.90;;;;;;5070167;28;20041;-64
2021/10/13 04:37:24;;;;;;;12.85;7.78;;;7.00;99.90;;;;;;5068985;28;19951;-64
2021/10/13 04:39:50;;;;;;;;;;;7.00;99.90;;;;;;5052096;28;20385;-64
2021/10/13 04:42:15;;;;;;;13.35;8.27;;;7.00;99.90;;;;;;5068881;28;19920;-65
2021/10/13 04:44:41;;;;;;;;;;;6.90;99.90;;;;;;5068941;28;20484;-62
2021/10/13 04:47:06;;;;;;;14.32;9.57;;;6.90;99.90;;;;;;5068901;28;19930;-64
2021/10/13 04:49:32;;;;;;;;;;;6.80;99.90;;;;;;5069841;28;20492;-65
2021/10/13 04:51:57;;;;;;;15.80;8.73;;;6.80;99.90;;;;;;5068412;28;19920;-65
2021/10/13 04:54:23;;;;;;;;;;;6.80;99.90;;;;;;5050907;28;20421;-65
2021/10/13 04:56:49;;;;;;;13.77;8.05;;;6.80;99.90;;;;;;5069291;28;20024;-65
2021/10/13 04:59:15;;;;;;;19.08;9.68;;;6.80;99.90;;;;;;5068930;28;20086;-64
2021/10/13 05:01:40;;;;;;;;;;;6.80;99.90;;;;;;5069795;28;20496;-65
2021/10/13 05:04:06;;;;;;;15.35;8.82;;;6.90;99.90;;;;;;5070551;28;19917;-64
2021/10/13 05:06:31;;;;;;;15.30;8.60;;;6.90;99.90;;;;;;5069982;28;20706;-66
2021/10/13 05:08:57;;;;;;;;;;;6.90;99.90;;;;;;5071077;28;20033;-64
2021/10/13 05:11:23;;;;;;;13.40;8.13;;;7.00;99.90;;;;;;5070484;28;19916;-65
2021/10/13 05:13:48;;;;;;;;;;;7.00;99.90;;;;;;5070449;28;20527;-65
2021/10/13 05:16:14;;;;;;;12.18;7.88;;;6.90;99.90;;;;;;5069169;28;19923;-64
2021/10/13 05:18:40;;;;;;;16.58;7.93;;;7.00;99.90;;;;;;5068974;28;20055;-64
2021/10/13 05:21:06;;;;;;;;;;;7.00;99.90;;;;;;5068727;28;20051;-64
2021/10/13 05:23:31;;;;;;;15.63;7.68;;;7.00;99.90;;;;;;5067874;28;20422;-65
2021/10/13 05:25:57;;;;;;;;;;;7.00;99.90;;;;;;5070043;28;20079;-64
2021/10/13 05:28:22;;;;;;;14.38;7.43;;;7.00;99.90;;;;;;5085512;28;19950;-65
2021/10/13 05:30:48;;;;;;;14.88;7.68;;;7.00;99.90;;;;;;5069946;28;20460;-64
2021/10/13 05:33:14;;;;;;;126.97;54.95;;;6.90;99.90;;;;;;5069494;28;20114;-64
2021/10/13 05:35:40;;;;;;;45.92;20.88;;;6.90;99.90;;;;;;5068220;28;20147;-63
2021/10/13 05:38:05;;;;;;;22.35;10.30;;;7.00;99.90;;;;;;5068434;28;20036;-64
2021/10/13 05:40:31;;;;;;;;;;;7.00;99.90;;;;;;5051152;28;20086;-64
2021/10/13 05:42:56;;;;;;;16.73;10.18;;;7.00;99.90;;;;;;5068805;28;19920;-65
2021/10/13 05:45:22;;;;;;;15.88;6.90;;;7.00;99.90;;;;;;5067909;28;20051;-64
2021/10/13 05:47:48;;;;;;;41.90;19.65;;;7.10;99.90;;;;;;5067422;28;20051;-64
2021/10/13 05:50:14;;;;;;;;;;;7.10;99.90;;;;;;5033126;28;20036;-64
2021/10/13 05:52:39;;;;;;;21.27;11.10;;;7.10;99.90;;;;;;5059602;28;19917;-64
2021/10/13 05:55:05;;;;;;;;;;;7.00;99.90;;;;;;5068849;28;20040;-64
2021/10/13 05:57:31;;;;;;;38.95;20.48;;;7.00;99.90;;;;;;5068502;28;19924;-63
2021/10/13 05:59:58;;;;;;;19.35;10.80;;;7.00;99.90;;;;;;5049900;28;20040;-62
2021/10/13 06:02:25;;;;;;;16.27;8.25;;;7.00;99.90;;;;;;5069597;28;20097;-65
2021/10/13 06:04:51;;;;;;;28.23;13.82;;;7.00;99.90;;;;;;5050697;28;20033;-63
2021/10/13 06:07:16;;;;;;;;;;;7.00;99.90;;;;;;5069734;28;20036;-63
2021/10/13 06:09:42;;;;;;;56.77;26.67;;;7.00;99.90;;;;;;5070672;28;19931;-63
2021/10/13 06:12:08;;;;;;;;;;;7.00;99.90;;;;;;5070305;28;20041;-64
2021/10/13 06:14:33;;;;;;;16.83;8.63;;;7.00;99.90;;;;;;5051968;28;19924;-64
2021/10/13 06:16:59;;;;;;;;;;;7.00;99.90;;;;;;5068533;28;20455;-64
2021/10/13 06:19:25;;;;;;;13.15;6.32;;;7.00;99.90;;;;;;5067868;28;19942;-64
2021/10/13 06:21:51;;;;;;;;;;;7.00;99.90;;;;;;5067715;28;20534;-64
2021/10/13 06:24:16;;;;;;;9.20;5.82;;;7.00;99.90;;;;;;5067640;28;19920;-64
2021/10/13 06:26:42;;;;;;;10.18;5.82;;;7.00;99.90;;;;;;5067498;28;20036;-64
2021/10/13 06:29:09;;;;;;;;;;;7.00;99.90;;;;;;5081441;28;20028;-64
2021/10/13 06:31:35;;;;;;;;;;;7.10;99.90;;;;;;5079735;28;20380;-64
2021/10/13 06:34:01;;;;;;;135.38;84.03;;;7.00;99.90;;;;;;5080156;28;19922;-64
2021/10/13 06:36:26;;;;;;;;;;;7.10;99.90;;;;;;5079970;28;20466;-65
2021/10/13 06:38:52;;;;;;;21.48;12.75;;;7.10;99.90;;;;;;5069346;28;19923;-63
2021/10/13 06:41:17;;;;;;;;;;;7.10;99.90;;;;;;5069030;28;20388;-52
2021/10/13 06:43:43;;;;;;;11.52;7.57;;;7.20;99.90;;;;;;5068943;28;19948;-59
2021/10/13 06:46:09;;;;;;;;;;;7.20;99.90;;;;;;5068489;28;20538;-62
2021/10/13 06:48:34;;;;;;;11.77;6.43;;;7.20;99.90;;;;;;5069362;28;19920;-60
2021/10/13 06:51:00;;;;;;;;;;;7.20;99.90;;;;;;5071210;28;20044;-63
2021/10/13 06:53:27;;;;;;;58.25;31.40;;;7.10;99.90;;;;;;5084155;28;20300;-63
2021/10/13 06:55:53;;;;;;;30.67;14.45;;;7.10;99.90;;;;;;5069366;28;20488;-62
2021/10/13 06:58:18;;;;;;;;;;;7.10;99.90;;;;;;5069265;28;20052;-64
2021/10/13 07:00:44;;;;;;;20.10;9.10;;;7.10;99.90;;;;;;5069370;28;19999;-66
2021/10/13 07:03:09;;;;;;;;;;;7.20;99.90;;;;;;5061294;28;20036;-64
2021/10/13 07:05:36;;;;;;;13.43;5.00;;;7.20;99.90;;;;;;5079672;28;20284;-63
2021/10/13 07:08:02;;;;;;;10.10;4.28;;;7.20;99.90;;;;;;5076970;28;20044;-63
2021/10/13 07:10:28;;;;;;;19.10;4.43;;;7.20;99.90;;;;;;5067871;28;20063;-63
2021/10/13 07:12:53;;;;;;;;;;;7.20;99.90;;;;;;5069281;28;20493;-59
2021/10/13 07:15:20;;;;;;;8.85;4.30;;;7.20;99.90;;;;;;5067634;28;19917;-63
2021/10/13 07:17:46;;;;;;;14.88;4.32;;;7.20;99.90;;;;;;5068377;28;20049;-64
2021/10/13 07:20:11;;;;;;;;;;;7.30;99.90;;;;;;5068358;28;20471;-65
2021/10/13 07:22:37;;;;;;;7.45;3.88;;;7.30;99.90;;;;;;5068464;28;19949;-64
2021/10/13 07:25:06;;;;;;;16.77;4.93;;;7.30;99.90;;;;;;5068659;28;20036;-62
2021/10/13 07:27:32;;;;;;;11.85;5.95;;;7.40;99.90;;;;;;5070444;28;20102;-64
2021/10/13 07:30:02;;;;;;;10.30;5.15;;;7.40;99.90;;;;;;5039142;28;20479;-65
2021/10/13 07:32:30;;;;;;;13.32;5.90;;;7.30;99.90;;;;;;5072076;28;20047;-65
2021/10/13 07:34:56;;;;;;;9.95;4.47;;;7.20;99.90;;;;;;5071648;28;20476;-63
2021/10/13 07:37:22;;;;;;;15.43;4.72;;;7.30;99.90;;;;;;5072949;28;20040;-62
2021/10/13 07:39:48;;;;;;;;;;;7.30;99.90;;;;;;5072719;28;20042;-63
2021/10/13 07:42:15;;;;;;;9.13;4.65;;;7.30;99.90;;;;;;5072888;28;19938;-64
2021/10/13 07:44:42;;;;;;;11.70;4.82;;;7.30;99.90;;;;;;5071506;28;20106;-66
2021/10/13 07:47:08;;;;;;;10.25;4.47;;;7.30;99.90;;;;;;5073956;28;20068;-66
2021/10/13 07:49:35;;;;;;;236.88;127.90;;;7.30;99.90;;;;;;5069505;28;20123;-64
2021/10/13 07:52:00;;;;;;;39.58;17.48;;;7.40;99.90;;;;;;5072676;28;20036;-65
2021/10/13 07:54:26;;;;;;;;;;;7.40;99.90;;;;;;5061867;28;20040;-65
2021/10/13 07:56:51;;;;;;;12.27;5.70;;;7.50;99.90;;;;;;5071638;28;19916;-63
2021/10/13 07:59:17;;;;;;;15.80;5.80;;;7.60;99.90;;;;;;5067548;28;20658;-65
2021/10/13 08:01:43;;;;;;;10.65;4.60;;;7.70;99.90;;;;;;5071684;28;20056;-65
2021/10/13 08:04:08;;;;;;;;;;;7.80;99.90;;;;;;5071337;28;20421;-65
2021/10/13 08:06:34;;;;;;;13.95;5.00;;;7.90;99.90;;;;;;5072083;28;20652;-65
2021/10/13 08:08:59;;;;;;;;;;;8.00;99.90;;;;;;5054070;28;20544;-64
2021/10/13 08:11:25;;;;;;;6.97;4.22;;;8.10;99.90;;;;;;5070758;28;19917;-63
2021/10/13 08:13:51;;;;;;;;;;;8.20;99.90;;;;;;5070605;28;20040;-64
2021/10/13 08:16:17;;;;;;;9.63;3.88;;;8.10;99.90;;;;;;5071249;28;19916;-66
2021/10/13 08:18:43;;;;;;;;;;;8.00;99.90;;;;;;5056204;28;20080;-65
2021/10/13 08:21:08;;;;;;;8.32;3.83;;;8.10;99.90;;;;;;5070141;28;20466;-64
2021/10/13 08:23:34;;;;;;;;;;;8.30;99.90;;;;;;5069922;28;20119;-65
2021/10/13 08:26:00;;;;;;;11.98;3.50;;;8.40;99.90;;;;;;5070710;28;19943;-64
2021/10/13 08:28:27;;;;;;;11.75;4.10;;;8.50;99.90;;;;;;5070832;28;20113;-65
2021/10/13 08:30:52;;;;;;;13.18;3.83;;;8.50;99.90;;;;;;5070838;28;20037;-65
2021/10/13 08:33:18;;;;;;;;;;;8.50;99.90;;;;;;5070498;28;20139;-64
2021/10/13 08:35:43;;;;;;;10.65;4.03;;;8.60;99.90;;;;;;5071042;28;19923;-65
2021/10/13 08:38:09;;;;;;;;;;;8.80;99.90;;;;;;5070122;28;20520;-65
2021/10/13 08:40:35;;;;;;;7.43;3.00;;;8.70;99.90;;;;;;5070514;28;19922;-66
2021/10/13 08:43:02;;;;;;;5.95;2.70;;;8.80;99.90;;;;;;5052806;28;20071;-66
2021/10/13 08:45:30;;;;;;;23.25;11.23;;;8.80;99.90;;;;;;5052014;28;20044;-65
2021/10/13 08:47:56;;;;;;;10.48;3.33;;;8.90;99.90;;;;;;5053109;28;20463;-64
2021/10/13 08:50:23;;;;;;;5.60;2.50;;;8.80;99.90;;;;;;5065098;28;20404;-65
2021/10/13 08:52:51;;;;;;;13.82;5.00;;;8.80;99.90;;;;;;5071008;28;20387;-65
2021/10/13 08:55:17;;;;;;;6.00;2.70;;;8.70;99.90;;;;;;5070255;28;20047;-66
2021/10/13 08:57:43;;;;;;;;;;;8.90;99.90;;;;;;5070844;28;20044;-65
2021/10/13 09:00:09;;;;;;;28.98;12.45;;;9.00;99.90;;;;;;5052669;28;19920;-65
2021/10/13 09:02:41;;;;;;;10.77;4.82;;;9.20;99.90;;;;;;5069468;28;20055;-65
2021/10/13 09:05:14;;;;;;;18.67;7.05;;;9.40;99.90;;;;;;5070054;28;20079;-66
2021/10/13 09:07:49;;;;;;;10.55;2.38;;;9.50;99.90;;;;;;5062098;28;20044;-64
2021/10/13 09:10:24;;;;;;;11.43;3.03;;;9.30;99.90;;;;;;5068990;28;20044;-65
2021/10/13 09:12:49;;;;;;;5.05;2.10;;;9.20;99.90;;;;;;5052281;28;20040;-64
2021/10/13 09:15:16;;;;;;;;;;;9.30;99.90;;;;;;5069103;28;20051;-65
2021/10/13 09:17:50;;;;;;;7.47;2.20;;;9.30;99.90;;;;;;5070168;28;20311;-65
2021/10/13 09:20:17;;;;;;;10.57;2.42;;;9.30;99.90;;;;;;5069289;28;20262;-65
2021/10/13 09:22:56;;;;;;;7.47;2.53;;;9.20;99.90;;;;;;5069634;28;20121;-65
2021/10/13 09:25:22;;;;;;;7.15;2.78;;;9.00;99.90;;;;;;5069547;28;20083;-65
2021/10/13 09:27:47;;;;;;;;;;;9.00;99.90;;;;;;5070539;28;20072;-65
2021/10/13 09:30:13;;;;;;;16.42;4.35;;;9.10;99.90;;;;;;5063928;28;19943;-65
2021/10/13 09:32:42;;;;;;;;;;;9.30;99.90;;;;;;5080071;28;20040;-65
2021/10/13 09:35:08;;;;;;;6.72;2.67;;;9.20;99.90;;;;;;5094433;28;19916;-65
2021/10/13 09:37:44;;;;;;;;;;;9.30;99.90;;;;;;5064353;28;20101;-65
2021/10/13 09:40:11;;;;;;;10.18;3.05;;;9.50;99.90;;;;;;5068534;28;19924;-65
2021/10/13 09:42:41;;;;;;;8.93;3.90;;;9.60;99.90;;;;;;5069643;28;20052;-65
2021/10/13 09:45:12;;;;;;;9.40;3.13;;;9.60;99.90;;;;;;5075237;28;20059;-64
2021/10/13 09:47:38;;;;;;;8.07;3.88;;;9.60;99.90;;;;;;5079307;28;20044;-65
2021/10/13 09:50:09;;;;;;;9.98;3.50;;;9.60;99.90;;;;;;5057988;28;20093;-65
2021/10/13 09:52:35;;;;;;;9.82;3.30;;;9.40;99.90;;;;;;5080062;28;20408;-66
2021/10/13 09:55:02;;;;;;;;;;;9.30;99.90;;;;;;5089582;28;20047;-66
2021/10/13 09:57:30;;;;;;;7.93;3.13;;;9.20;99.90;;;;;;5089219;28;19923;-66
2021/10/13 09:59:59;;;;;;;8.70;3.17;;;9.20;99.90;;;;;;5071940;28;20447;-65
2021/10/13 10:02:25;;;;;;;10.07;3.30;;;9.20;99.90;;;;;;5066647;28;20036;-66
2021/10/13 10:04:52;;;;;;;8.63;2.92;;;9.30;99.90;;;;;;5034814;28;20062;-66
2021/10/13 10:07:21;;;;;;;10.52;2.97;;;9.30;99.90;;;;;;5070318;28;20040;-65
2021/10/13 10:10:05;;;;;;;15.00;3.08;;;9.40;99.90;;;;;;5053743;28;20059;-65
2021/10/13 10:12:57;;;;;;;7.28;2.78;;;9.40;99.90;;;;;;5049606;28;20103;-65
2021/10/13 10:15:41;;;;;;;15.68;3.50;;;9.50;99.90;;;;;;5067758;28;20142;-65
2021/10/13 10:18:33;;;;;;;9.25;3.38;;;9.40;99.90;;;;;;5068571;28;20427;-65
2021/10/13 10:21:27;;;;;;;11.55;3.05;;;9.30;99.90;;;;;;5049891;28;20040;-64
2021/10/13 10:23:58;;;;;;;12.02;3.88;;;9.30;99.90;;;;;;5067137;28;20488;-64
2021/10/13 10:26:26;;;;;;;8.35;2.97;;;9.20;99.90;;;;;;5069208;28;20707;-64
2021/10/13 10:28:52;;;;;;;9.55;2.90;;;9.20;99.90;;;;;;5076286;28;20037;-64
2021/10/13 10:31:27;;;;;;;;;;;9.10;99.90;;;;;;5068598;28;20109;-65
2021/10/13 10:34:06;;;;;;;5.80;1.60;;;9.20;99.90;;;;;;5088000;28;19986;-64
2021/10/13 10:36:34;;;;;;;10.65;2.45;;;9.30;99.90;;;;;;5073973;28;20496;-66
2021/10/13 10:39:15;;;;;;;7.43;1.98;;;9.30;99.90;;;;;;5091195;28;20396;-66
2021/10/13 10:41:54;;;;;;;10.13;1.58;;;9.40;99.90;;;;;;5071361;28;20176;-64
2021/10/13 10:44:33;;;;;;;5.18;2.05;;;9.50;99.90;;;;;;5088153;28;20588;-64
2021/10/13 10:47:12;;;;;;;5.60;1.55;;;9.80;99.90;;;;;;5087561;28;20572;-64
2021/10/13 10:49:49;;;;;;;5.70;1.45;;;10.00;99.90;;;;;;5088237;28;20036;-65
2021/10/13 10:52:24;;;;;;;5.75;2.03;;;10.00;99.90;;;;;;5087690;28;20056;-65
2021/10/13 10:55:04;;;;;;;4.80;1.65;;;10.00;99.90;;;;;;5087764;28;20036;-65
2021/10/13 10:57:39;;;;;;;6.13;1.40;;;9.90;99.90;;;;;;5087734;28;20434;-65
2021/10/13 11:00:08;;;;;;;5.07;1.40;;;9.80;99.90;;;;;;5074073;28;20043;-62
2021/10/13 11:02:35;;;;;;;3.67;1.30;;;9.70;99.90;;;;;;5047833;28;20047;-66
2021/10/13 11:05:05;;;;;;;4.50;1.23;;;9.60;99.90;;;;;;5067740;28;20048;-63
2021/10/13 11:07:32;;;;;;;4.15;1.13;;;9.50;99.90;;;;;;5066253;28;20048;-53
2021/10/13 11:10:08;;;;;;;6.03;1.40;;;9.60;99.90;;;;;;5067797;28;20041;-66
2021/10/13 11:12:51;;;;;;;4.32;1.08;;;9.50;99.90;;;;;;5067791;28;20040;-63
2021/10/13 11:15:18;;;;;;;9.15;1.45;;;9.50;99.90;;;;;;5067293;28;20493;-61
2021/10/13 11:17:44;;;;;;;8.25;3.05;;;9.40;99.90;;;;;;5068205;28;20052;-65
2021/10/13 11:20:10;;;;;;;;;;;9.30;99.90;;;;;;5068486;28;20048;-63
2021/10/13 11:22:36;;;;;;;4.68;1.75;;;9.30;99.90;;;;;;5067550;28;19927;-61
2021/10/13 11:25:16;;;;;;;7.78;1.52;;;9.30;99.90;;;;;;5066986;28;20120;-64
2021/10/13 11:27:55;;;;;;;5.53;1.30;;;9.30;99.90;;;;;;5063529;28;20037;-63
2021/10/13 11:30:21;;;;;;;2.25;1.20;;;9.50;99.90;;;;;;5048020;28;20466;-66
2021/10/13 11:32:47;;;;;;;11.43;2.33;;;9.60;99.90;;;;;;5067406;28;20179;-64
2021/10/13 11:35:17;;;;;;;;;;;9.70;99.90;;;;;;5066754;28;20111;-64
2021/10/13 11:37:47;;;;;;;6.30;2.03;;;9.50;99.90;;;;;;5059140;28;20261;-64
2021/10/13 11:40:14;;;;;;;6.18;1.67;;;9.50;99.90;;;;;;5066537;28;20064;-66
2021/10/13 11:42:40;;;;;;;7.30;1.77;;;9.60;99.90;;;;;;5068292;28;20048;-66
2021/10/13 11:45:11;;;;;;;;;;;9.50;99.90;;;;;;5067505;28;20044;-66
2021/10/13 11:47:37;;;;;;;6.88;1.88;;;9.60;99.90;;;;;;5067413;28;19932;-66
2021/10/13 11:50:10;;;;;;;7.38;1.45;;;9.50;99.90;;;;;;5067288;28;20040;-64
2021/10/13 11:52:37;;;;;;;13.30;2.60;;;9.40;99.90;;;;;;5067084;28;20280;-63
2021/10/13 11:55:05;;;;;;;5.40;1.73;;;9.40;99.90;;;;;;5066177;28;20092;-65
2021/10/13 11:57:31;;;;;;;8.10;1.90;;;9.30;99.90;;;;;;5057123;28;20047;-65
2021/10/13 12:00:14;;;;;;;6.38;2.00;;;9.30;99.90;;;;;;5076327;28;20044;-66
2021/10/13 12:02:41;;;;;;;6.85;2.00;;;9.20;99.90;;;;;;5061681;28;20093;-63
2021/10/13 12:05:08;;;;;;;6.53;2.50;;;9.20;99.90;;;;;;5073679;28;20490;-66
2021/10/13 12:07:43;;;;;;;7.78;1.77;;;9.10;99.90;;;;;;5075505;28;20040;-67
2021/10/13 12:10:10;;;;;;;7.00;1.52;;;9.10;99.90;;;;;;5074125;28;20051;-67
2021/10/13 12:12:35;;;;;;;5.82;1.65;;;9.10;99.90;;;;;;5073293;28;20047;-65
2021/10/13 12:15:14;;;;;;;;;;;9.10;99.90;;;;;;5085820;28;20036;-66
2021/10/13 12:17:40;;;;;;;9.98;1.60;;;9.10;99.90;;;;;;5074153;28;20022;-67
2021/10/13 12:20:14;;;;;;;;;;;9.20;99.90;;;;;;5091651;28;20115;-65
2021/10/13 12:22:49;;;;;;;4.50;1.60;;;9.20;99.90;;;;;;5090878;28;20381;-66
2021/10/13 12:25:30;;;;;;;10.90;1.92;;;9.10;99.90;;;;;;5088520;28;20629;-64
2021/10/13 12:27:58;;;;;;;3.67;1.70;;;9.10;99.90;;;;;;5083446;28;20043;-64
2021/10/13 12:30:35;;;;;;;7.80;1.60;;;9.10;99.90;;;;;;5071280;28;20049;-63
2021/10/13 12:33:09;;;;;;;5.07;1.92;;;9.20;99.90;;;;;;5068750;28;20040;-63
2021/10/13 12:35:35;;;;;;;7.20;1.67;;;9.20;99.90;;;;;;5070761;28;20071;-64
2021/10/13 12:38:09;;;;;;;;;;;9.30;99.90;;;;;;5069857;28;20111;-62
2021/10/13 12:40:35;;;;;;;7.40;1.58;;;9.40;99.90;;;;;;5068932;28;19924;-63
2021/10/13 12:43:20;;;;;;;;;;;9.40;99.90;;;;;;5069903;28;20055;-62
2021/10/13 12:45:46;;;;;;;5.18;1.33;;;9.40;99.90;;;;;;5069525;28;19920;-66
2021/10/13 12:48:12;;;;;;;;;;;9.40;99.90;;;;;;5070393;28;20032;-67
2021/10/13 12:50:38;;;;;;;3.37;1.37;;;9.50;99.90;;;;;;5085734;28;19923;-65
2021/10/13 12:53:03;;;;;;;;;;;9.50;99.90;;;;;;5069460;28;20262;-66
2021/10/13 12:55:29;;;;;;;4.35;1.15;;;9.60;99.90;;;;;;5069271;28;20614;-68
2021/10/13 12:57:55;;;;;;;;;;;9.60;99.90;;;;;;5070431;28;20695;-65
2021/10/13 13:02:48;;;;;;;4.18;0.77;;;9.60;99.90;;;;;;5006813;28;20054;-66
2021/10/13 13:05:14;;;;;;;;;;;9.70;99.90;;;;;;5010224;28;20077;-67
2021/10/13 13:07:40;;;;;;;6.38;0.88;;;9.80;99.90;;;;;;5009669;28;19971;-67
2021/10/13 13:10:06;;;;;;;5.68;0.93;;;9.80;99.90;;;;;;5009413;28;20065;-66
2021/10/13 13:12:32;;;;;;;;;;;9.80;99.90;;;;;;5009973;28;20519;-67
2021/10/13 13:14:57;;;;;;;2.28;0.80;;;9.60;99.90;;;;;;5009331;28;19918;-66
2021/10/13 13:17:23;;;;;;;;;;;9.60;99.90;;;;;;5009792;28;20136;-66
2021/10/13 13:19:48;;;;;;;2.85;1.00;;;9.60;99.90;;;;;;4991770;28;19917;-67
2021/10/13 13:22:14;;;;;;;;;;;9.50;99.90;;;;;;5008559;28;20030;-66